sensor_id;sensor_type;location;lat;lon;timestamp;pressure;altitude;pressure_sealevel;temperature;humidity
24620;BME280;12763;55.802;37.404;2023-01-01T00:01:29;99055.81;;;4.50;100.00
24620;BME280;12763;55.802;37.404;2023-01-01T00:03:57;99055.75;;;4.44;100.00
24620;BME280;12763;55.802;37.404;2023-01-01T00:06:23;99046.50;;;4.45;100.00
24620;BME280;12763;55.802;37.404;2023-01-01T00:08:49;99049.81;;;4.40;100.00
24620;BME280;12763;55.802;37.404;2023-01-01T00:11:35;99050.84;;;4.39;100.00
24620;BME280;12763;55.802;37.404;2023-01-01T00:14:00;99033.88;;;4.44;100.00
24620;BME280;12763;55.802;37.404;2023-01-01T00:16:26;99031.41;;;4.49;100.00
24620;BME280;12763;55.802;37.404;2023-01-01T00:18:52;99030.06;;;4.59;100.00
24620;BME280;12763;55.802;37.404;2023-01-01T00:21:18;99021.69;;;4.61;100.00
24620;BME280;12763;55.802;37.404;2023-01-01T00:23:43;99012.88;;;4.44;100.00
24620;BME280;12763;55.802;37.404;2023-01-01T00:26:10;99028.56;;;4.57;100.00
24620;BME280;12763;55.802;37.404;2023-01-01T00:28:37;99017.41;;;4.37;100.00
24620;BME280;12763;55.802;37.404;2023-01-01T00:31:11;99015.94;;;4.56;100.00
24620;BME280;12763;55.802;37.404;2023-01-01T00:33:37;99012.69;;;4.31;100.00
24620;BME280;12763;55.802;37.404;2023-01-01T00:36:07;99014.56;;;4.45;100.00
24620;BME280;12763;55.802;37.404;2023-01-01T00:38:33;99002.88;;;4.51;100.00
24620;BME280;12763;55.802;37.404;2023-01-01T00:40:59;98993.78;;;4.65;100.00
24620;BME280;12763;55.802;37.404;2023-01-01T00:43:24;98979.75;;;4.33;100.00
24620;BME280;12763;55.802;37.404;2023-01-01T00:45:50;98982.78;;;4.23;100.00
24620;BME280;12763;55.802;37.404;2023-01-01T00:48:19;98978.00;;;4.46;100.00
24620;BME280;12763;55.802;37.404;2023-01-01T00:50:52;98972.94;;;4.43;100.00
24620;BME280;12763;55.802;37.404;2023-01-01T00:53:19;98965.84;;;4.49;100.00
24620;BME280;12763;55.802;37.404;2023-01-01T00:55:47;98970.84;;;4.45;100.00
24620;BME280;12763;55.802;37.404;2023-01-01T00:58:13;98959.03;;;4.59;100.00
24620;BME280;12763;55.802;37.404;2023-01-01T01:00:40;98953.09;;;4.56;100.00
24620;BME280;12763;55.802;37.404;2023-01-01T01:03:06;98957.06;;;4.53;100.00
24620;BME280;12763;55.802;37.404;2023-01-01T01:05:32;98952.78;;;4.44;100.00
24620;BME280;12763;55.802;37.404;2023-01-01T01:08:01;98946.66;;;4.63;100.00
24620;BME280;12763;55.802;37.404;2023-01-01T01:10:27;98935.22;;;4.74;100.00
24620;BME280;12763;55.802;37.404;2023-01-01T01:12:53;98929.63;;;4.83;100.00
24620;BME280;12763;55.802;37.404;2023-01-01T01:15:19;98918.41;;;4.14;100.00
24620;BME280;12763;55.802;37.404;2023-01-01T01:17:44;98917.41;;;4.36;100.00
24620;BME280;12763;55.802;37.404;2023-01-01T01:20:11;98906.06;;;4.39;100.00
24620;BME280;12763;55.802;37.404;2023-01-01T01:22:37;98910.16;;;4.29;100.00
24620;BME280;12763;55.802;37.404;2023-01-01T01:25:03;98906.97;;;4.46;100.00
24620;BME280;12763;55.802;37.404;2023-01-01T01:27:29;98915.34;;;4.24;100.00
24620;BME280;12763;55.802;37.404;2023-01-01T01:29:55;98906.03;;;4.18;100.00
24620;BME280;12763;55.802;37.404;2023-01-01T01:32:20;98900.91;;;4.30;100.00
24620;BME280;12763;55.802;37.404;2023-01-01T01:34:47;98905.75;;;4.49;100.00
24620;BME280;12763;55.802;37.404;2023-01-01T01:37:13;98896.13;;;4.53;100.00
24620;BME280;12763;55.802;37.404;2023-01-01T01:39:39;98895.53;;;4.57;100.00
24620;BME280;12763;55.802;37.404;2023-01-01T01:42:05;98894.50;;;4.58;100.00
24620;BME280;12763;55.802;37.404;2023-01-01T01:47:57;98887.66;;;4.69;100.00
24620;BME280;12763;55.802;37.404;2023-01-01T01:50:27;98895.28;;;4.52;100.00
24620;BME280;12763;55.802;37.404;2023-01-01T01:53:28;98877.53;;;4.69;100.00
24620;BME280;12763;55.802;37.404;2023-01-01T01:56:02;98873.63;;;4.79;100.00
24620;BME280;12763;55.802;37.404;2023-01-01T01:58:30;98866.44;;;4.71;100.00
24620;BME280;12763;55.802;37.404;2023-01-01T02:00:56;98867.19;;;4.58;100.00
24620;BME280;12763;55.802;37.404;2023-01-01T02:03:27;98867.66;;;4.68;100.00
24620;BME280;12763;55.802;37.404;2023-01-01T02:05:55;98867.28;;;4.71;100.00
24620;BME280;12763;55.802;37.404;2023-01-01T02:08:22;98849.19;;;4.70;100.00
24620;BME280;12763;55.802;37.404;2023-01-01T02:10:48;98850.91;;;4.78;100.00
24620;BME280;12763;55.802;37.404;2023-01-01T02:13:13;98863.38;;;4.59;100.00
24620;BME280;12763;55.802;37.404;2023-01-01T02:16:01;98855.59;;;4.84;100.00
24620;BME280;12763;55.802;37.404;2023-01-01T02:19:00;98849.06;;;4.57;100.00
24620;BME280;12763;55.802;37.404;2023-01-01T02:21:43;98844.09;;;4.89;100.00
24620;BME280;12763;55.802;37.404;2023-01-01T02:27:05;98844.50;;;4.92;100.00
24620;BME280;12763;55.802;37.404;2023-01-01T02:30:01;98853.22;;;4.74;100.00
24620;BME280;12763;55.802;37.404;2023-01-01T02:40:29;98845.84;;;4.47;100.00
24620;BME280;12763;55.802;37.404;2023-01-01T02:42:56;98834.72;;;4.49;100.00
24620;BME280;12763;55.802;37.404;2023-01-01T02:45:22;98829.50;;;4.54;100.00
24620;BME280;12763;55.802;37.404;2023-01-01T02:47:48;98814.09;;;4.46;100.00
24620;BME280;12763;55.802;37.404;2023-01-01T02:50:24;98796.94;;;4.59;100.00
24620;BME280;12763;55.802;37.404;2023-01-01T02:55:35;98792.03;;;4.48;100.00
24620;BME280;12763;55.802;37.404;2023-01-01T03:04:09;98782.78;;;4.49;100.00
24620;BME280;12763;55.802;37.404;2023-01-01T03:09:25;98787.34;;;4.69;100.00
24620;BME280;12763;55.802;37.404;2023-01-01T03:12:05;98794.44;;;4.57;100.00
24620;BME280;12763;55.802;37.404;2023-01-01T03:17:11;98797.00;;;4.65;100.00
24620;BME280;12763;55.802;37.404;2023-01-01T03:19:42;98797.41;;;4.62;100.00
24620;BME280;12763;55.802;37.404;2023-01-01T03:22:13;98782.78;;;4.77;100.00
24620;BME280;12763;55.802;37.404;2023-01-01T03:24:47;98787.22;;;4.50;100.00
24620;BME280;12763;55.802;37.404;2023-01-01T03:27:27;98777.03;;;4.65;100.00
24620;BME280;12763;55.802;37.404;2023-01-01T03:29:54;98760.25;;;4.40;100.00
24620;BME280;12763;55.802;37.404;2023-01-01T03:32:38;98757.56;;;4.74;100.00
24620;BME280;12763;55.802;37.404;2023-01-01T03:35:50;98747.97;;;4.57;100.00
24620;BME280;12763;55.802;37.404;2023-01-01T03:38:22;98740.88;;;4.69;100.00
24620;BME280;12763;55.802;37.404;2023-01-01T03:40:53;98737.13;;;4.70;100.00
24620;BME280;12763;55.802;37.404;2023-01-01T03:43:45;98721.81;;;4.76;100.00
24620;BME280;12763;55.802;37.404;2023-01-01T03:46:12;98706.66;;;4.73;100.00
24620;BME280;12763;55.802;37.404;2023-01-01T03:48:39;98706.88;;;4.72;100.00
24620;BME280;12763;55.802;37.404;2023-01-01T03:51:39;98710.25;;;4.81;100.00
24620;BME280;12763;55.802;37.404;2023-01-01T03:56:48;98717.19;;;4.42;100.00
24620;BME280;12763;55.802;37.404;2023-01-01T03:59:22;98707.44;;;4.61;100.00
24620;BME280;12763;55.802;37.404;2023-01-01T04:01:56;98707.31;;;4.75;100.00
24620;BME280;12763;55.802;37.404;2023-01-01T04:04:23;98719.13;;;4.48;100.00
24620;BME280;12763;55.802;37.404;2023-01-01T04:06:52;98706.34;;;4.55;100.00
24620;BME280;12763;55.802;37.404;2023-01-01T04:09:22;98704.06;;;4.31;100.00
24620;BME280;12763;55.802;37.404;2023-01-01T04:11:50;98707.69;;;4.72;100.00
24620;BME280;12763;55.802;37.404;2023-01-01T04:14:39;98712.34;;;4.72;100.00
24620;BME280;12763;55.802;37.404;2023-01-01T04:17:07;98710.53;;;4.51;100.00
24620;BME280;12763;55.802;37.404;2023-01-01T04:19:33;98712.53;;;4.70;100.00
24620;BME280;12763;55.802;37.404;2023-01-01T04:22:00;98706.59;;;4.60;100.00
24620;BME280;12763;55.802;37.404;2023-01-01T04:24:26;98709.97;;;4.62;100.00
24620;BME280;12763;55.802;37.404;2023-01-01T04:26:52;98699.19;;;4.54;100.00
24620;BME280;12763;55.802;37.404;2023-01-01T04:29:19;98691.56;;;4.43;100.00
24620;BME280;12763;55.802;37.404;2023-01-01T04:31:45;98693.34;;;4.57;100.00
24620;BME280;12763;55.802;37.404;2023-01-01T04:34:10;98679.22;;;4.54;100.00
24620;BME280;12763;55.802;37.404;2023-01-01T04:36:37;98680.88;;;4.83;100.00
24620;BME280;12763;55.802;37.404;2023-01-01T04:39:03;98679.22;;;4.95;100.00
24620;BME280;12763;55.802;37.404;2023-01-01T04:41:29;98692.44;;;4.85;100.00
24620;BME280;12763;55.802;37.404;2023-01-01T04:43:56;98671.41;;;4.92;100.00
24620;BME280;12763;55.802;37.404;2023-01-01T04:46:22;98670.44;;;5.06;100.00
24620;BME280;12763;55.802;37.404;2023-01-01T04:48:49;98666.03;;;5.11;100.00
24620;BME280;12763;55.802;37.404;2023-01-01T04:51:16;98668.78;;;5.05;100.00
24620;BME280;12763;55.802;37.404;2023-01-01T04:53:42;98673.53;;;4.90;100.00
24620;BME280;12763;55.802;37.404;2023-01-01T04:56:11;98667.69;;;4.99;100.00
24620;BME280;12763;55.802;37.404;2023-01-01T04:58:38;98675.78;;;4.80;100.00
24620;BME280;12763;55.802;37.404;2023-01-01T05:01:05;98671.75;;;4.75;100.00
24620;BME280;12763;55.802;37.404;2023-01-01T05:03:31;98664.97;;;5.06;100.00
24620;BME280;12763;55.802;37.404;2023-01-01T05:06:04;98674.81;;;4.94;100.00
24620;BME280;12763;55.802;37.404;2023-01-01T05:08:31;98660.72;;;4.49;100.00
24620;BME280;12763;55.802;37.404;2023-01-01T05:11:06;98646.13;;;4.77;100.00
24620;BME280;12763;55.802;37.404;2023-01-01T05:13:41;98657.88;;;4.70;100.00
24620;BME280;12763;55.802;37.404;2023-01-01T05:16:12;98655.13;;;4.70;100.00
24620;BME280;12763;55.802;37.404;2023-01-01T05:18:38;98655.88;;;4.92;100.00
24620;BME280;12763;55.802;37.404;2023-01-01T05:21:11;98664.53;;;4.61;100.00
24620;BME280;12763;55.802;37.404;2023-01-01T05:23:37;98649.75;;;4.90;100.00
24620;BME280;12763;55.802;37.404;2023-01-01T05:26:14;98664.63;;;4.74;100.00
24620;BME280;12763;55.802;37.404;2023-01-01T05:28:40;98681.38;;;4.65;100.00
24620;BME280;12763;55.802;37.404;2023-01-01T05:31:08;98658.59;;;4.86;100.00
24620;BME280;12763;55.802;37.404;2023-01-01T05:33:35;98653.31;;;4.78;100.00
24620;BME280;12763;55.802;37.404;2023-01-01T05:36:03;98658.22;;;4.54;100.00
24620;BME280;12763;55.802;37.404;2023-01-01T05:38:29;98660.25;;;4.46;100.00
24620;BME280;12763;55.802;37.404;2023-01-01T05:40:55;98654.44;;;4.55;100.00
24620;BME280;12763;55.802;37.404;2023-01-01T05:43:21;98642.31;;;4.71;100.00
24620;BME280;12763;55.802;37.404;2023-01-01T05:45:47;98635.69;;;4.93;100.00
24620;BME280;12763;55.802;37.404;2023-01-01T05:48:12;98623.03;;;4.79;100.00
24620;BME280;12763;55.802;37.404;2023-01-01T05:50:38;98630.19;;;4.80;100.00
24620;BME280;12763;55.802;37.404;2023-01-01T05:53:04;98624.78;;;5.00;100.00
24620;BME280;12763;55.802;37.404;2023-01-01T05:55:29;98631.94;;;5.01;100.00
24620;BME280;12763;55.802;37.404;2023-01-01T05:57:56;98621.41;;;4.98;100.00
24620;BME280;12763;55.802;37.404;2023-01-01T06:00:22;98618.88;;;4.96;100.00
24620;BME280;12763;55.802;37.404;2023-01-01T06:02:48;98616.78;;;4.98;100.00
24620;BME280;12763;55.802;37.404;2023-01-01T06:05:16;98626.28;;;5.09;100.00
24620;BME280;12763;55.802;37.404;2023-01-01T06:07:42;98634.41;;;4.89;100.00
24620;BME280;12763;55.802;37.404;2023-01-01T06:10:08;98637.44;;;5.14;100.00
24620;BME280;12763;55.802;37.404;2023-01-01T06:12:33;98626.09;;;5.10;100.00
24620;BME280;12763;55.802;37.404;2023-01-01T06:14:59;98607.53;;;5.06;100.00
24620;BME280;12763;55.802;37.404;2023-01-01T06:17:25;98596.41;;;5.14;100.00
24620;BME280;12763;55.802;37.404;2023-01-01T06:19:50;98600.00;;;5.14;100.00
24620;BME280;12763;55.802;37.404;2023-01-01T06:22:16;98597.03;;;5.09;100.00
24620;BME280;12763;55.802;37.404;2023-01-01T06:24:42;98594.53;;;5.08;100.00
24620;BME280;12763;55.802;37.404;2023-01-01T06:27:07;98602.13;;;5.19;100.00
24620;BME280;12763;55.802;37.404;2023-01-01T06:29:33;98602.34;;;5.24;100.00
24620;BME280;12763;55.802;37.404;2023-01-01T06:31:59;98599.94;;;4.88;100.00
24620;BME280;12763;55.802;37.404;2023-01-01T06:34:24;98595.16;;;5.10;100.00
24620;BME280;12763;55.802;37.404;2023-01-01T06:36:50;98596.19;;;5.09;100.00
24620;BME280;12763;55.802;37.404;2023-01-01T06:39:16;98601.69;;;5.22;100.00
24620;BME280;12763;55.802;37.404;2023-01-01T06:41:41;98581.28;;;5.05;100.00
24620;BME280;12763;55.802;37.404;2023-01-01T06:44:07;98576.00;;;4.97;100.00
24620;BME280;12763;55.802;37.404;2023-01-01T06:46:34;98578.25;;;4.80;100.00
24620;BME280;12763;55.802;37.404;2023-01-01T06:49:05;98574.72;;;5.06;100.00
24620;BME280;12763;55.802;37.404;2023-01-01T06:51:35;98557.94;;;5.15;100.00
24620;BME280;12763;55.802;37.404;2023-01-01T06:54:02;98557.75;;;5.37;100.00
24620;BME280;12763;55.802;37.404;2023-01-01T06:56:29;98550.16;;;5.32;100.00
24620;BME280;12763;55.802;37.404;2023-01-01T06:58:55;98547.00;;;5.22;100.00
24620;BME280;12763;55.802;37.404;2023-01-01T07:01:23;98557.94;;;5.28;100.00
24620;BME280;12763;55.802;37.404;2023-01-01T07:03:51;98563.78;;;4.99;100.00
24620;BME280;12763;55.802;37.404;2023-01-01T07:06:18;98553.72;;;5.00;100.00
24620;BME280;12763;55.802;37.404;2023-01-01T07:08:43;98559.56;;;4.90;100.00
24620;BME280;12763;55.802;37.404;2023-01-01T07:11:09;98562.97;;;5.05;100.00
24620;BME280;12763;55.802;37.404;2023-01-01T07:13:35;98551.19;;;5.05;100.00
24620;BME280;12763;55.802;37.404;2023-01-01T07:16:01;98547.81;;;5.09;100.00
24620;BME280;12763;55.802;37.404;2023-01-01T07:18:27;98558.09;;;5.01;100.00
24620;BME280;12763;55.802;37.404;2023-01-01T07:20:55;98553.53;;;5.21;100.00
24620;BME280;12763;55.802;37.404;2023-01-01T07:23:22;98542.56;;;5.14;100.00
24620;BME280;12763;55.802;37.404;2023-01-01T07:25:49;98533.31;;;5.22;100.00
24620;BME280;12763;55.802;37.404;2023-01-01T07:28:15;98540.25;;;5.18;100.00
24620;BME280;12763;55.802;37.404;2023-01-01T07:30:41;98544.84;;;4.98;100.00
24620;BME280;12763;55.802;37.404;2023-01-01T07:33:10;98545.97;;;5.29;100.00
24620;BME280;12763;55.802;37.404;2023-01-01T07:35:37;98544.47;;;5.20;100.00
24620;BME280;12763;55.802;37.404;2023-01-01T07:38:03;98545.94;;;5.23;100.00
24620;BME280;12763;55.802;37.404;2023-01-01T07:40:28;98549.94;;;5.20;100.00
24620;BME280;12763;55.802;37.404;2023-01-01T07:42:54;98543.63;;;5.07;100.00
24620;BME280;12763;55.802;37.404;2023-01-01T07:45:19;98532.91;;;5.25;100.00
24620;BME280;12763;55.802;37.404;2023-01-01T07:47:50;98534.41;;;5.41;100.00
24620;BME280;12763;55.802;37.404;2023-01-01T07:50:19;98534.16;;;5.22;100.00
24620;BME280;12763;55.802;37.404;2023-01-01T07:52:44;98527.66;;;5.30;100.00
24620;BME280;12763;55.802;37.404;2023-01-01T07:55:15;98518.38;;;5.44;100.00
24620;BME280;12763;55.802;37.404;2023-01-01T07:57:42;98518.84;;;5.41;100.00
24620;BME280;12763;55.802;37.404;2023-01-01T08:00:10;98521.97;;;5.64;100.00
24620;BME280;12763;55.802;37.404;2023-01-01T08:02:41;98512.50;;;5.54;100.00
24620;BME280;12763;55.802;37.404;2023-01-01T08:05:07;98522.81;;;5.58;100.00
24620;BME280;12763;55.802;37.404;2023-01-01T08:07:33;98524.72;;;5.31;100.00
24620;BME280;12763;55.802;37.404;2023-01-01T08:10:00;98516.06;;;5.67;100.00
24620;BME280;12763;55.802;37.404;2023-01-01T08:12:26;98522.16;;;5.69;100.00
24620;BME280;12763;55.802;37.404;2023-01-01T08:14:52;98521.31;;;5.75;100.00
24620;BME280;12763;55.802;37.404;2023-01-01T08:17:17;98521.75;;;5.59;100.00
24620;BME280;12763;55.802;37.404;2023-01-01T08:19:43;98528.28;;;5.71;100.00
24620;BME280;12763;55.802;37.404;2023-01-01T08:22:14;98529.34;;;5.51;100.00
24620;BME280;12763;55.802;37.404;2023-01-01T08:24:40;98518.78;;;5.80;100.00
24620;BME280;12763;55.802;37.404;2023-01-01T08:27:06;98518.81;;;5.67;100.00
24620;BME280;12763;55.802;37.404;2023-01-01T08:29:32;98516.31;;;5.46;100.00
24620;BME280;12763;55.802;37.404;2023-01-01T08:31:58;98508.91;;;5.53;100.00
24620;BME280;12763;55.802;37.404;2023-01-01T08:34:23;98502.81;;;5.64;100.00
24620;BME280;12763;55.802;37.404;2023-01-01T08:36:49;98505.56;;;5.58;100.00
24620;BME280;12763;55.802;37.404;2023-01-01T08:39:15;98494.81;;;5.56;100.00
24620;BME280;12763;55.802;37.404;2023-01-01T08:41:42;98496.50;;;5.57;100.00
24620;BME280;12763;55.802;37.404;2023-01-01T08:44:07;98481.28;;;5.94;100.00
24620;BME280;12763;55.802;37.404;2023-01-01T08:46:33;98483.66;;;5.51;100.00
24620;BME280;12763;55.802;37.404;2023-01-01T08:48:59;98491.22;;;5.75;100.00
24620;BME280;12763;55.802;37.404;2023-01-01T08:51:24;98485.75;;;5.62;100.00
24620;BME280;12763;55.802;37.404;2023-01-01T08:53:50;98493.97;;;5.56;100.00
24620;BME280;12763;55.802;37.404;2023-01-01T08:56:16;98501.56;;;5.47;100.00
24620;BME280;12763;55.802;37.404;2023-01-01T08:58:41;98501.16;;;5.63;100.00
24620;BME280;12763;55.802;37.404;2023-01-01T09:01:09;98507.44;;;5.64;100.00
24620;BME280;12763;55.802;37.404;2023-01-01T09:03:35;98488.69;;;5.61;100.00
24620;BME280;12763;55.802;37.404;2023-01-01T09:06:01;98488.28;;;5.90;100.00
24620;BME280;12763;55.802;37.404;2023-01-01T09:08:26;98482.56;;;6.05;100.00
24620;BME280;12763;55.802;37.404;2023-01-01T09:10:56;98462.34;;;5.99;100.00
24620;BME280;12763;55.802;37.404;2023-01-01T09:13:22;98453.97;;;5.87;100.00
24620;BME280;12763;55.802;37.404;2023-01-01T09:15:48;98460.28;;;5.88;100.00
24620;BME280;12763;55.802;37.404;2023-01-01T09:18:13;98454.78;;;5.75;100.00
24620;BME280;12763;55.802;37.404;2023-01-01T09:20:39;98447.41;;;5.75;100.00
24620;BME280;12763;55.802;37.404;2023-01-01T09:23:06;98443.66;;;5.63;100.00
24620;BME280;12763;55.802;37.404;2023-01-01T09:25:33;98433.69;;;6.02;100.00
24620;BME280;12763;55.802;37.404;2023-01-01T09:28:06;98433.88;;;6.00;100.00
24620;BME280;12763;55.802;37.404;2023-01-01T09:30:34;98430.31;;;6.00;100.00
24620;BME280;12763;55.802;37.404;2023-01-01T09:33:00;98434.50;;;6.02;100.00
24620;BME280;12763;55.802;37.404;2023-01-01T09:35:26;98441.31;;;5.93;100.00
24620;BME280;12763;55.802;37.404;2023-01-01T09:37:52;98435.78;;;6.06;100.00
24620;BME280;12763;55.802;37.404;2023-01-01T09:40:51;98437.09;;;5.90;100.00
24620;BME280;12763;55.802;37.404;2023-01-01T09:46:05;98426.47;;;6.14;100.00
24620;BME280;12763;55.802;37.404;2023-01-01T09:48:32;98427.50;;;6.19;100.00
24620;BME280;12763;55.802;37.404;2023-01-01T09:51:03;98421.81;;;6.21;100.00
24620;BME280;12763;55.802;37.404;2023-01-01T09:56:18;98415.75;;;6.12;100.00
24620;BME280;12763;55.802;37.404;2023-01-01T09:58:47;98417.63;;;6.12;100.00
24620;BME280;12763;55.802;37.404;2023-01-01T10:03:47;98405.28;;;6.40;100.00
24620;BME280;12763;55.802;37.404;2023-01-01T10:12:05;98394.13;;;6.35;100.00
24620;BME280;12763;55.802;37.404;2023-01-01T10:14:35;98378.34;;;6.31;100.00
24620;BME280;12763;55.802;37.404;2023-01-01T10:17:09;98364.81;;;6.36;100.00
24620;BME280;12763;55.802;37.404;2023-01-01T10:19:42;98369.16;;;6.50;100.00
24620;BME280;12763;55.802;37.404;2023-01-01T10:22:32;98372.09;;;6.17;100.00
24620;BME280;12763;55.802;37.404;2023-01-01T10:25:14;98371.56;;;6.40;100.00
24620;BME280;12763;55.802;37.404;2023-01-01T10:30:29;98356.00;;;6.27;100.00
24620;BME280;12763;55.802;37.404;2023-01-01T10:32:56;98345.03;;;6.34;100.00
24620;BME280;12763;55.802;37.404;2023-01-01T10:35:28;98356.91;;;6.53;100.00
24620;BME280;12763;55.802;37.404;2023-01-01T10:37:58;98344.53;;;6.43;100.00
24620;BME280;12763;55.802;37.404;2023-01-01T10:40:26;98342.44;;;6.45;100.00
24620;BME280;12763;55.802;37.404;2023-01-01T10:42:58;98344.22;;;6.58;100.00
24620;BME280;12763;55.802;37.404;2023-01-01T10:45:51;98336.81;;;6.65;100.00
24620;BME280;12763;55.802;37.404;2023-01-01T10:48:20;98340.44;;;6.59;100.00
24620;BME280;12763;55.802;37.404;2023-01-01T10:51:01;98328.22;;;6.55;100.00
24620;BME280;12763;55.802;37.404;2023-01-01T10:53:40;98334.84;;;6.41;100.00
24620;BME280;12763;55.802;37.404;2023-01-01T10:58:46;98332.47;;;6.51;100.00
24620;BME280;12763;55.802;37.404;2023-01-01T11:06:21;98324.03;;;6.77;100.00
24620;BME280;12763;55.802;37.404;2023-01-01T11:08:52;98315.66;;;6.72;100.00
24620;BME280;12763;55.802;37.404;2023-01-01T11:11:30;98319.53;;;6.89;100.00
24620;BME280;12763;55.802;37.404;2023-01-01T11:14:01;98322.66;;;6.68;100.00
24620;BME280;12763;55.802;37.404;2023-01-01T11:16:37;98310.72;;;6.81;100.00
24620;BME280;12763;55.802;37.404;2023-01-01T11:19:07;98309.78;;;6.69;100.00
24620;BME280;12763;55.802;37.404;2023-01-01T11:21:45;98307.84;;;6.76;100.00
24620;BME280;12763;55.802;37.404;2023-01-01T11:24:18;98307.38;;;7.03;100.00
24620;BME280;12763;55.802;37.404;2023-01-01T11:26:45;98303.50;;;6.86;100.00
24620;BME280;12763;55.802;37.404;2023-01-01T11:31:51;98306.69;;;6.83;100.00
24620;BME280;12763;55.802;37.404;2023-01-01T11:37:08;98297.75;;;6.94;100.00
24620;BME280;12763;55.802;37.404;2023-01-01T11:39:35;98299.19;;;6.97;100.00
24620;BME280;12763;55.802;37.404;2023-01-01T11:42:02;98288.81;;;6.56;100.00
24620;BME280;12763;55.802;37.404;2023-01-01T11:45:38;98286.50;;;6.78;100.00
24620;BME280;12763;55.802;37.404;2023-01-01T11:47:44;98277.31;;;6.90;100.00
24620;BME280;12763;55.802;37.404;2023-01-01T11:52:40;98274.81;;;6.64;100.00
24620;BME280;12763;55.802;37.404;2023-01-01T12:00:16;98271.06;;;6.59;100.00
24620;BME280;12763;55.802;37.404;2023-01-01T12:06:15;98256.31;;;7.02;100.00
24620;BME280;12763;55.802;37.404;2023-01-01T12:08:47;98264.03;;;7.12;100.00
24620;BME280;12763;55.802;37.404;2023-01-01T12:11:30;98259.41;;;6.88;100.00
24620;BME280;12763;55.802;37.404;2023-01-01T12:14:03;98256.59;;;6.94;100.00
24620;BME280;12763;55.802;37.404;2023-01-01T12:19:34;98242.91;;;6.94;100.00
24620;BME280;12763;55.802;37.404;2023-01-01T12:22:00;98249.97;;;6.84;100.00
24620;BME280;12763;55.802;37.404;2023-01-01T12:24:32;98252.34;;;6.98;100.00
24620;BME280;12763;55.802;37.404;2023-01-01T12:27:05;98247.91;;;6.79;100.00
24620;BME280;12763;55.802;37.404;2023-01-01T12:30:19;98250.38;;;7.05;100.00
24620;BME280;12763;55.802;37.404;2023-01-01T12:35:43;98246.78;;;6.87;100.00
24620;BME280;12763;55.802;37.404;2023-01-01T12:41:22;98232.41;;;7.09;100.00
24620;BME280;12763;55.802;37.404;2023-01-01T12:46:38;98241.53;;;7.03;100.00
24620;BME280;12763;55.802;37.404;2023-01-01T12:49:16;98236.81;;;7.10;100.00
24620;BME280;12763;55.802;37.404;2023-01-01T12:57:20;98250.63;;;7.22;100.00
24620;BME280;12763;55.802;37.404;2023-01-01T12:59:52;98243.22;;;7.23;100.00
24620;BME280;12763;55.802;37.404;2023-01-01T13:02:22;98235.59;;;7.06;100.00
24620;BME280;12763;55.802;37.404;2023-01-01T13:04:54;98237.41;;;7.13;100.00
24620;BME280;12763;55.802;37.404;2023-01-01T13:07:47;98242.78;;;7.26;100.00
24620;BME280;12763;55.802;37.404;2023-01-01T13:12:48;98223.88;;;7.18;100.00
24620;BME280;12763;55.802;37.404;2023-01-01T13:15:41;98229.34;;;7.18;100.00
24620;BME280;12763;55.802;37.404;2023-01-01T13:20:45;98222.66;;;6.95;100.00
24620;BME280;12763;55.802;37.404;2023-01-01T13:40:30;98187.13;;;7.19;100.00
24620;BME280;12763;55.802;37.404;2023-01-01T13:45:25;98184.38;;;7.19;100.00
24620;BME280;12763;55.802;37.404;2023-01-01T13:48:25;98190.00;;;7.42;100.00
24620;BME280;12763;55.802;37.404;2023-01-01T13:51:19;98198.56;;;7.34;100.00
24620;BME280;12763;55.802;37.404;2023-01-01T13:56:42;98199.47;;;7.28;100.00
24620;BME280;12763;55.802;37.404;2023-01-01T14:02:15;98190.19;;;7.29;100.00
24620;BME280;12763;55.802;37.404;2023-01-01T14:05:02;98200.72;;;7.32;100.00
24620;BME280;12763;55.802;37.404;2023-01-01T14:07:48;98194.47;;;7.54;100.00
24620;BME280;12763;55.802;37.404;2023-01-01T14:10:26;98194.41;;;7.61;100.00
24620;BME280;12763;55.802;37.404;2023-01-01T14:16:06;98180.88;;;7.30;100.00
24620;BME280;12763;55.802;37.404;2023-01-01T14:18:32;98167.88;;;7.55;100.00
24620;BME280;12763;55.802;37.404;2023-01-01T14:20:59;98164.78;;;7.33;100.00
24620;BME280;12763;55.802;37.404;2023-01-01T14:23:35;98174.25;;;7.19;100.00
24620;BME280;12763;55.802;37.404;2023-01-01T14:26:09;98179.28;;;7.22;100.00
24620;BME280;12763;55.802;37.404;2023-01-01T14:28:37;98171.44;;;7.26;100.00
24620;BME280;12763;55.802;37.404;2023-01-01T14:31:05;98179.03;;;7.42;100.00
24620;BME280;12763;55.802;37.404;2023-01-01T14:33:35;98177.44;;;7.34;100.00
24620;BME280;12763;55.802;37.404;2023-01-01T14:36:04;98170.19;;;7.40;100.00
24620;BME280;12763;55.802;37.404;2023-01-01T14:38:34;98164.94;;;7.38;100.00
24620;BME280;12763;55.802;37.404;2023-01-01T14:43:47;98149.88;;;7.59;100.00
24620;BME280;12763;55.802;37.404;2023-01-01T14:46:19;98140.22;;;7.38;100.00
24620;BME280;12763;55.802;37.404;2023-01-01T14:48:49;98148.66;;;7.55;100.00
24620;BME280;12763;55.802;37.404;2023-01-01T14:51:18;98142.59;;;7.35;100.00
24620;BME280;12763;55.802;37.404;2023-01-01T14:53:46;98156.09;;;7.36;100.00
24620;BME280;12763;55.802;37.404;2023-01-01T14:56:30;98145.66;;;7.27;100.00
24620;BME280;12763;55.802;37.404;2023-01-01T14:59:13;98157.53;;;7.39;100.00
24620;BME280;12763;55.802;37.404;2023-01-01T15:01:42;98143.75;;;7.57;100.00
24620;BME280;12763;55.802;37.404;2023-01-01T15:04:23;98144.13;;;7.60;100.00
24620;BME280;12763;55.802;37.404;2023-01-01T15:06:59;98144.59;;;7.57;100.00
24620;BME280;12763;55.802;37.404;2023-01-01T15:09:25;98128.13;;;7.57;100.00
24620;BME280;12763;55.802;37.404;2023-01-01T15:11:52;98138.28;;;7.57;100.00